sensor_id;sensor_type;location;lat;lon;timestamp;P1;durP1;ratioP1;P2;durP2;ratioP2
14732;SDS011;7457;50.960;6.830;2023-03-03T00:01:10;39.55;;;24.00;;
14732;SDS011;7457;50.960;6.830;2023-03-03T00:03:36;35.13;;;22.92;;
14732;SDS011;7457;50.960;6.830;2023-03-03T00:06:02;42.67;;;25.63;;
14732;SDS011;7457;50.960;6.830;2023-03-03T00:08:29;41.33;;;25.20;;
14732;SDS011;7457;50.960;6.830;2023-03-03T00:10:56;39.97;;;26.13;;
14732;SDS011;7457;50.960;6.830;2023-03-03T00:13:23;40.28;;;26.05;;
14732;SDS011;7457;50.960;6.830;2023-03-03T00:15:50;44.25;;;28.42;;
14732;SDS011;7457;50.960;6.830;2023-03-03T00:18:21;37.08;;;24.70;;
14732;SDS011;7457;50.960;6.830;2023-03-03T00:21:00;38.75;;;24.58;;
14732;SDS011;7457;50.960;6.830;2023-03-03T00:23:44;39.67;;;25.90;;
14732;SDS011;7457;50.960;6.830;2023-03-03T00:26:27;40.90;;;26.38;;
14732;SDS011;7457;50.960;6.830;2023-03-03T00:29:00;38.92;;;24.73;;
14732;SDS011;7457;50.960;6.830;2023-03-03T00:31:31;41.22;;;25.23;;
14732;SDS011;7457;50.960;6.830;2023-03-03T00:36:44;41.88;;;27.23;;
14732;SDS011;7457;50.960;6.830;2023-03-03T00:41:55;45.42;;;26.38;;
14732;SDS011;7457;50.960;6.830;2023-03-03T00:49:53;52.92;;;28.20;;
14732;SDS011;7457;50.960;6.830;2023-03-03T00:52:24;45.40;;;26.48;;
14732;SDS011;7457;50.960;6.830;2023-03-03T00:54:53;46.35;;;26.98;;
14732;SDS011;7457;50.960;6.830;2023-03-03T00:57:19;44.85;;;27.05;;
14732;SDS011;7457;50.960;6.830;2023-03-03T00:59:44;48.17;;;29.17;;
14732;SDS011;7457;50.960;6.830;2023-03-03T01:02:10;42.67;;;27.85;;
14732;SDS011;7457;50.960;6.830;2023-03-03T01:04:36;46.53;;;27.13;;
14732;SDS011;7457;50.960;6.830;2023-03-03T01:07:01;46.28;;;27.67;;
14732;SDS011;7457;50.960;6.830;2023-03-03T01:09:27;40.25;;;26.08;;
14732;SDS011;7457;50.960;6.830;2023-03-03T01:11:53;45.78;;;26.55;;
14732;SDS011;7457;50.960;6.830;2023-03-03T01:14:19;50.75;;;27.60;;
14732;SDS011;7457;50.960;6.830;2023-03-03T01:16:44;43.90;;;27.60;;
14732;SDS011;7457;50.960;6.830;2023-03-03T01:19:10;46.38;;;27.90;;
14732;SDS011;7457;50.960;6.830;2023-03-03T01:21:36;46.65;;;29.27;;
14732;SDS011;7457;50.960;6.830;2023-03-03T01:24:02;44.40;;;26.52;;
14732;SDS011;7457;50.960;6.830;2023-03-03T01:26:28;48.80;;;28.10;;
14732;SDS011;7457;50.960;6.830;2023-03-03T01:28:55;44.70;;;26.77;;
14732;SDS011;7457;50.960;6.830;2023-03-03T01:31:21;46.63;;;27.83;;
14732;SDS011;7457;50.960;6.830;2023-03-03T01:33:46;44.75;;;27.27;;
14732;SDS011;7457;50.960;6.830;2023-03-03T01:36:12;48.60;;;29.02;;
14732;SDS011;7457;50.960;6.830;2023-03-03T01:38:38;46.30;;;28.10;;
14732;SDS011;7457;50.960;6.830;2023-03-03T01:41:04;48.08;;;28.70;;
14732;SDS011;7457;50.960;6.830;2023-03-03T01:43:30;54.05;;;29.88;;
14732;SDS011;7457;50.960;6.830;2023-03-03T01:51:03;50.88;;;29.92;;
14732;SDS011;7457;50.960;6.830;2023-03-03T01:53:43;51.22;;;28.80;;
14732;SDS011;7457;50.960;6.830;2023-03-03T01:56:12;51.95;;;30.30;;
14732;SDS011;7457;50.960;6.830;2023-03-03T01:58:39;49.75;;;29.35;;
14732;SDS011;7457;50.960;6.830;2023-03-03T02:01:10;50.30;;;29.33;;
14732;SDS011;7457;50.960;6.830;2023-03-03T02:03:38;47.33;;;29.52;;
14732;SDS011;7457;50.960;6.830;2023-03-03T02:06:06;53.00;;;29.30;;
14732;SDS011;7457;50.960;6.830;2023-03-03T02:08:38;51.53;;;29.17;;
14732;SDS011;7457;50.960;6.830;2023-03-03T02:11:23;48.72;;;28.85;;
14732;SDS011;7457;50.960;6.830;2023-03-03T02:13:50;48.10;;;28.35;;
14732;SDS011;7457;50.960;6.830;2023-03-03T02:16:16;52.05;;;29.20;;
14732;SDS011;7457;50.960;6.830;2023-03-03T02:18:42;49.97;;;27.55;;
14732;SDS011;7457;50.960;6.830;2023-03-03T02:21:09;48.78;;;28.15;;
14732;SDS011;7457;50.960;6.830;2023-03-03T02:26:44;59.58;;;29.85;;
14732;SDS011;7457;50.960;6.830;2023-03-03T02:29:11;49.45;;;26.75;;
14732;SDS011;7457;50.960;6.830;2023-03-03T02:31:37;48.65;;;28.85;;
14732;SDS011;7457;50.960;6.830;2023-03-03T02:34:02;47.45;;;26.95;;
14732;SDS011;7457;50.960;6.830;2023-03-03T02:36:29;52.05;;;28.58;;
14732;SDS011;7457;50.960;6.830;2023-03-03T02:39:13;52.20;;;29.88;;
14732;SDS011;7457;50.960;6.830;2023-03-03T02:44:52;50.58;;;28.48;;
14732;SDS011;7457;50.960;6.830;2023-03-03T02:47:17;47.35;;;25.05;;
14732;SDS011;7457;50.960;6.830;2023-03-03T02:49:43;41.63;;;24.42;;
14732;SDS011;7457;50.960;6.830;2023-03-03T02:52:10;44.75;;;25.60;;
14732;SDS011;7457;50.960;6.830;2023-03-03T02:54:36;39.78;;;22.73;;
14732;SDS011;7457;50.960;6.830;2023-03-03T02:57:02;46.50;;;26.13;;
14732;SDS011;7457;50.960;6.830;2023-03-03T02:59:29;50.55;;;28.35;;
14732;SDS011;7457;50.960;6.830;2023-03-03T03:01:55;43.88;;;23.35;;
14732;SDS011;7457;50.960;6.830;2023-03-03T03:04:21;42.25;;;23.88;;
14732;SDS011;7457;50.960;6.830;2023-03-03T03:06:49;51.72;;;27.58;;
14732;SDS011;7457;50.960;6.830;2023-03-03T03:09:15;49.25;;;26.05;;
14732;SDS011;7457;50.960;6.830;2023-03-03T03:11:42;35.55;;;19.95;;
14732;SDS011;7457;50.960;6.830;2023-03-03T03:14:08;47.72;;;25.45;;
14732;SDS011;7457;50.960;6.830;2023-03-03T03:16:35;44.38;;;24.88;;
14732;SDS011;7457;50.960;6.830;2023-03-03T03:19:01;46.42;;;27.13;;
14732;SDS011;7457;50.960;6.830;2023-03-03T03:21:27;44.47;;;25.63;;
14732;SDS011;7457;50.960;6.830;2023-03-03T03:23:53;43.15;;;24.33;;
14732;SDS011;7457;50.960;6.830;2023-03-03T03:26:19;47.60;;;26.33;;
14732;SDS011;7457;50.960;6.830;2023-03-03T03:28:46;43.55;;;24.13;;
14732;SDS011;7457;50.960;6.830;2023-03-03T03:31:12;44.30;;;25.30;;
14732;SDS011;7457;50.960;6.830;2023-03-03T03:33:38;43.80;;;23.13;;
14732;SDS011;7457;50.960;6.830;2023-03-03T03:36:04;43.05;;;21.85;;
14732;SDS011;7457;50.960;6.830;2023-03-03T03:38:30;43.72;;;26.13;;
14732;SDS011;7457;50.960;6.830;2023-03-03T03:40:57;44.72;;;26.30;;
14732;SDS011;7457;50.960;6.830;2023-03-03T03:43:22;44.50;;;24.30;;
14732;SDS011;7457;50.960;6.830;2023-03-03T03:45:48;45.00;;;26.38;;
14732;SDS011;7457;50.960;6.830;2023-03-03T03:48:14;47.30;;;25.42;;
14732;SDS011;7457;50.960;6.830;2023-03-03T03:50:41;36.58;;;21.42;;
14732;SDS011;7457;50.960;6.830;2023-03-03T03:53:08;24.63;;;14.80;;
14732;SDS011;7457;50.960;6.830;2023-03-03T03:55:33;38.35;;;21.65;;
14732;SDS011;7457;50.960;6.830;2023-03-03T03:57:59;32.00;;;16.13;;
14732;SDS011;7457;50.960;6.830;2023-03-03T04:00:24;36.97;;;21.38;;
14732;SDS011;7457;50.960;6.830;2023-03-03T04:02:50;45.70;;;23.30;;
14732;SDS011;7457;50.960;6.830;2023-03-03T04:05:16;42.28;;;24.83;;
14732;SDS011;7457;50.960;6.830;2023-03-03T04:07:42;37.22;;;21.80;;
14732;SDS011;7457;50.960;6.830;2023-03-03T04:10:08;38.38;;;23.17;;
14732;SDS011;7457;50.960;6.830;2023-03-03T04:12:34;38.33;;;23.20;;
14732;SDS011;7457;50.960;6.830;2023-03-03T04:15:04;42.00;;;22.45;;
14732;SDS011;7457;50.960;6.830;2023-03-03T04:17:30;31.00;;;19.25;;
14732;SDS011;7457;50.960;6.830;2023-03-03T04:19:56;33.58;;;22.02;;
14732;SDS011;7457;50.960;6.830;2023-03-03T04:22:22;36.83;;;22.05;;
14732;SDS011;7457;50.960;6.830;2023-03-03T04:24:47;39.42;;;22.10;;
14732;SDS011;7457;50.960;6.830;2023-03-03T04:27:13;33.80;;;17.80;;
14732;SDS011;7457;50.960;6.830;2023-03-03T04:29:39;31.92;;;20.40;;
14732;SDS011;7457;50.960;6.830;2023-03-03T04:32:06;27.75;;;16.23;;
14732;SDS011;7457;50.960;6.830;2023-03-03T04:34:31;39.30;;;22.35;;
14732;SDS011;7457;50.960;6.830;2023-03-03T04:36:57;35.33;;;20.05;;
14732;SDS011;7457;50.960;6.830;2023-03-03T04:39:22;38.75;;;21.60;;
14732;SDS011;7457;50.960;6.830;2023-03-03T04:41:48;39.33;;;22.13;;
14732;SDS011;7457;50.960;6.830;2023-03-03T04:44:14;40.42;;;21.67;;
14732;SDS011;7457;50.960;6.830;2023-03-03T04:46:39;36.83;;;21.00;;
14732;SDS011;7457;50.960;6.830;2023-03-03T04:49:05;39.78;;;22.60;;
14732;SDS011;7457;50.960;6.830;2023-03-03T04:51:32;41.40;;;22.27;;
14732;SDS011;7457;50.960;6.830;2023-03-03T04:53:58;40.40;;;22.33;;
14732;SDS011;7457;50.960;6.830;2023-03-03T04:56:26;38.42;;;22.20;;
14732;SDS011;7457;50.960;6.830;2023-03-03T04:58:52;42.45;;;23.75;;
14732;SDS011;7457;50.960;6.830;2023-03-03T05:01:18;45.38;;;23.92;;
14732;SDS011;7457;50.960;6.830;2023-03-03T05:03:44;44.00;;;23.88;;
14732;SDS011;7457;50.960;6.830;2023-03-03T05:06:09;44.03;;;22.73;;
14732;SDS011;7457;50.960;6.830;2023-03-03T05:08:35;41.15;;;22.60;;
14732;SDS011;7457;50.960;6.830;2023-03-03T05:11:01;46.55;;;24.27;;
14732;SDS011;7457;50.960;6.830;2023-03-03T05:13:27;40.67;;;22.42;;
14732;SDS011;7457;50.960;6.830;2023-03-03T05:15:53;37.80;;;20.27;;
14732;SDS011;7457;50.960;6.830;2023-03-03T05:18:20;41.95;;;24.35;;
14732;SDS011;7457;50.960;6.830;2023-03-03T05:20:48;42.30;;;24.90;;
14732;SDS011;7457;50.960;6.830;2023-03-03T05:23:15;38.75;;;22.70;;
14732;SDS011;7457;50.960;6.830;2023-03-03T05:25:41;44.13;;;22.70;;
14732;SDS011;7457;50.960;6.830;2023-03-03T05:28:07;37.65;;;21.55;;
14732;SDS011;7457;50.960;6.830;2023-03-03T05:30:34;41.08;;;20.52;;
14732;SDS011;7457;50.960;6.830;2023-03-03T05:35:33;33.60;;;20.00;;
14732;SDS011;7457;50.960;6.830;2023-03-03T05:37:58;29.60;;;17.45;;
14732;SDS011;7457;50.960;6.830;2023-03-03T05:40:24;38.13;;;21.42;;
14732;SDS011;7457;50.960;6.830;2023-03-03T05:42:50;36.85;;;20.65;;
14732;SDS011;7457;50.960;6.830;2023-03-03T05:45:16;32.33;;;19.60;;
14732;SDS011;7457;50.960;6.830;2023-03-03T05:47:44;33.03;;;19.20;;
14732;SDS011;7457;50.960;6.830;2023-03-03T05:50:10;36.75;;;21.08;;
14732;SDS011;7457;50.960;6.830;2023-03-03T05:52:36;37.75;;;20.67;;
14732;SDS011;7457;50.960;6.830;2023-03-03T05:55:02;34.75;;;20.48;;
14732;SDS011;7457;50.960;6.830;2023-03-03T05:57:28;35.40;;;20.88;;
14732;SDS011;7457;50.960;6.830;2023-03-03T05:59:54;35.05;;;20.02;;
14732;SDS011;7457;50.960;6.830;2023-03-03T06:02:19;41.38;;;22.35;;
14732;SDS011;7457;50.960;6.830;2023-03-03T06:04:45;36.85;;;20.00;;
14732;SDS011;7457;50.960;6.830;2023-03-03T06:07:11;36.15;;;22.45;;
14732;SDS011;7457;50.960;6.830;2023-03-03T06:09:36;39.55;;;24.00;;
14732;SDS011;7457;50.960;6.830;2023-03-03T06:12:02;35.38;;;21.55;;
14732;SDS011;7457;50.960;6.830;2023-03-03T06:14:28;32.42;;;18.67;;
14732;SDS011;7457;50.960;6.830;2023-03-03T06:16:53;35.90;;;20.95;;
14732;SDS011;7457;50.960;6.830;2023-03-03T06:19:19;35.97;;;21.42;;
14732;SDS011;7457;50.960;6.830;2023-03-03T06:21:45;34.83;;;21.17;;
14732;SDS011;7457;50.960;6.830;2023-03-03T06:24:10;39.20;;;21.30;;
14732;SDS011;7457;50.960;6.830;2023-03-03T06:26:36;34.40;;;20.63;;
14732;SDS011;7457;50.960;6.830;2023-03-03T06:29:02;33.50;;;20.23;;
14732;SDS011;7457;50.960;6.830;2023-03-03T06:31:27;36.00;;;21.23;;
14732;SDS011;7457;50.960;6.830;2023-03-03T06:33:53;35.58;;;20.58;;
14732;SDS011;7457;50.960;6.830;2023-03-03T06:36:19;35.38;;;17.80;;
14732;SDS011;7457;50.960;6.830;2023-03-03T08:21:35;38.83;;;22.65;;
14732;SDS011;7457;50.960;6.830;2023-03-03T08:24:01;40.97;;;22.90;;
14732;SDS011;7457;50.960;6.830;2023-03-03T08:26:26;41.05;;;22.77;;
14732;SDS011;7457;50.960;6.830;2023-03-03T08:28:52;40.08;;;22.33;;
14732;SDS011;7457;50.960;6.830;2023-03-03T08:31:19;37.28;;;22.35;;
14732;SDS011;7457;50.960;6.830;2023-03-03T08:33:45;41.83;;;24.08;;
14732;SDS011;7457;50.960;6.830;2023-03-03T08:36:12;37.30;;;21.85;;
14732;SDS011;7457;50.960;6.830;2023-03-03T08:38:38;36.75;;;22.02;;
14732;SDS011;7457;50.960;6.830;2023-03-03T08:41:03;39.20;;;20.00;;
14732;SDS011;7457;50.960;6.830;2023-03-03T08:43:29;41.22;;;22.00;;
14732;SDS011;7457;50.960;6.830;2023-03-03T08:45:56;34.22;;;21.35;;
14732;SDS011;7457;50.960;6.830;2023-03-03T08:48:23;37.05;;;20.83;;
14732;SDS011;7457;50.960;6.830;2023-03-03T08:50:50;32.60;;;18.92;;
14732;SDS011;7457;50.960;6.830;2023-03-03T08:53:16;46.15;;;25.30;;
14732;SDS011;7457;50.960;6.830;2023-03-03T08:55:44;57.53;;;30.75;;
14732;SDS011;7457;50.960;6.830;2023-03-03T08:58:10;36.40;;;21.75;;
14732;SDS011;7457;50.960;6.830;2023-03-03T09:00:36;37.90;;;19.98;;
14732;SDS011;7457;50.960;6.830;2023-03-03T09:03:02;35.60;;;20.60;;
14732;SDS011;7457;50.960;6.830;2023-03-03T09:05:31;33.08;;;19.60;;
14732;SDS011;7457;50.960;6.830;2023-03-03T09:07:57;36.63;;;19.42;;
14732;SDS011;7457;50.960;6.830;2023-03-03T09:10:24;33.92;;;19.45;;
14732;SDS011;7457;50.960;6.830;2023-03-03T09:12:55;35.22;;;21.08;;
14732;SDS011;7457;50.960;6.830;2023-03-03T09:15:26;34.25;;;17.52;;
14732;SDS011;7457;50.960;6.830;2023-03-03T09:17:57;32.38;;;17.77;;
14732;SDS011;7457;50.960;6.830;2023-03-03T09:22:59;30.88;;;17.65;;
14732;SDS011;7457;50.960;6.830;2023-03-03T09:25:49;35.28;;;17.85;;
14732;SDS011;7457;50.960;6.830;2023-03-03T09:28:26;35.00;;;18.42;;
14732;SDS011;7457;50.960;6.830;2023-03-03T09:30:58;32.05;;;17.80;;
14732;SDS011;7457;50.960;6.830;2023-03-03T09:38:41;30.83;;;18.95;;
14732;SDS011;7457;50.960;6.830;2023-03-03T10:05:18;26.42;;;16.60;;
14732;SDS011;7457;50.960;6.830;2023-03-03T10:13:59;27.90;;;15.43;;
14732;SDS011;7457;50.960;6.830;2023-03-03T10:22:01;29.23;;;17.35;;
14732;SDS011;7457;50.960;6.830;2023-03-03T10:24:46;28.45;;;14.95;;
14732;SDS011;7457;50.960;6.830;2023-03-03T10:30:20;25.08;;;14.55;;
14732;SDS011;7457;50.960;6.830;2023-03-03T10:33:09;27.73;;;15.75;;
14732;SDS011;7457;50.960;6.830;2023-03-03T10:52:30;30.30;;;17.35;;
14732;SDS011;7457;50.960;6.830;2023-03-03T10:57:52;35.00;;;20.45;;
14732;SDS011;7457;50.960;6.830;2023-03-03T11:05:42;33.83;;;18.27;;
14732;SDS011;7457;50.960;6.830;2023-03-03T11:08:19;39.35;;;20.98;;
14732;SDS011;7457;50.960;6.830;2023-03-03T11:21:50;36.67;;;19.65;;
14732;SDS011;7457;50.960;6.830;2023-03-03T11:30:07;33.03;;;18.05;;
14732;SDS011;7457;50.960;6.830;2023-03-03T11:32:56;41.33;;;23.38;;
14732;SDS011;7457;50.960;6.830;2023-03-03T11:41:21;34.75;;;18.50;;
14732;SDS011;7457;50.960;6.830;2023-03-03T11:43:55;35.03;;;17.83;;
14732;SDS011;7457;50.960;6.830;2023-03-03T11:47:04;34.78;;;19.83;;
14732;SDS011;7457;50.960;6.830;2023-03-03T11:55:16;35.30;;;18.70;;
14732;SDS011;7457;50.960;6.830;2023-03-03T11:58:12;37.47;;;21.00;;
14732;SDS011;7457;50.960;6.830;2023-03-03T12:22:41;34.42;;;19.30;;
14732;SDS011;7457;50.960;6.830;2023-03-03T12:25:35;45.08;;;24.40;;
14732;SDS011;7457;50.960;6.830;2023-03-03T12:28:16;40.92;;;22.85;;
14732;SDS011;7457;50.960;6.830;2023-03-03T12:31:05;44.03;;;22.42;;
14732;SDS011;7457;50.960;6.830;2023-03-03T12:36:24;34.13;;;20.48;;
14732;SDS011;7457;50.960;6.830;2023-03-03T12:41:50;37.85;;;22.08;;
14732;SDS011;7457;50.960;6.830;2023-03-03T12:44:43;41.53;;;21.73;;
14732;SDS011;7457;50.960;6.830;2023-03-03T12:58:00;42.33;;;21.08;;
14732;SDS011;7457;50.960;6.830;2023-03-03T13:08:47;48.42;;;21.83;;
14732;SDS011;7457;50.960;6.830;2023-03-03T13:17:02;48.92;;;23.67;;
14732;SDS011;7457;50.960;6.830;2023-03-03T13:19:57;46.67;;;22.98;;
14732;SDS011;7457;50.960;6.830;2023-03-03T13:22:53;45.67;;;22.90;;
14732;SDS011;7457;50.960;6.830;2023-03-03T13:25:52;40.50;;;23.48;;
14732;SDS011;7457;50.960;6.830;2023-03-03T13:31:01;51.10;;;24.50;;
14732;SDS011;7457;50.960;6.830;2023-03-03T13:33:34;47.78;;;24.30;;
14732;SDS011;7457;50.960;6.830;2023-03-03T13:36:06;52.08;;;25.95;;
14732;SDS011;7457;50.960;6.830;2023-03-03T13:38:56;50.40;;;24.67;;
14732;SDS011;7457;50.960;6.830;2023-03-03T13:41:29;47.95;;;25.35;;
14732;SDS011;7457;50.960;6.830;2023-03-03T13:44:14;48.50;;;26.23;;
14732;SDS011;7457;50.960;6.830;2023-03-03T13:52:09;51.00;;;26.80;;
14732;SDS011;7457;50.960;6.830;2023-03-03T13:54:52;55.05;;;27.88;;
14732;SDS011;7457;50.960;6.830;2023-03-03T14:03:45;48.95;;;24.60;;
14732;SDS011;7457;50.960;6.830;2023-03-03T14:06:22;52.13;;;27.48;;
14732;SDS011;7457;50.960;6.830;2023-03-03T14:11:45;51.75;;;26.23;;
14732;SDS011;7457;50.960;6.830;2023-03-03T14:17:28;44.70;;;25.17;;
14732;SDS011;7457;50.960;6.830;2023-03-03T14:20:14;45.13;;;24.52;;
14732;SDS011;7457;50.960;6.830;2023-03-03T14:22:53;43.60;;;25.08;;
14732;SDS011;7457;50.960;6.830;2023-03-03T14:25:23;51.13;;;25.23;;
14732;SDS011;7457;50.960;6.830;2023-03-03T14:32:59;49.88;;;25.58;;
14732;SDS011;7457;50.960;6.830;2023-03-03T14:35:28;47.63;;;24.05;;
14732;SDS011;7457;50.960;6.830;2023-03-03T14:38:00;51.00;;;24.45;;
14732;SDS011;7457;50.960;6.830;2023-03-03T14:40:30;48.55;;;25.15;;
14732;SDS011;7457;50.960;6.830;2023-03-03T14:42:58;46.85;;;23.70;;
14732;SDS011;7457;50.960;6.830;2023-03-03T14:47:51;47.55;;;24.58;;
14732;SDS011;7457;50.960;6.830;2023-03-03T14:50:28;40.17;;;22.98;;
14732;SDS011;7457;50.960;6.830;2023-03-03T14:53:19;42.45;;;22.20;;
14732;SDS011;7457;50.960;6.830;2023-03-03T14:59:10;38.63;;;22.08;;
14732;SDS011;7457;50.960;6.830;2023-03-03T15:01:42;39.67;;;21.40;;
14732;SDS011;7457;50.960;6.830;2023-03-03T15:11:55;37.45;;;20.85;;
14732;SDS011;7457;50.960;6.830;2023-03-03T15:19:49;43.08;;;22.85;;
14732;SDS011;7457;50.960;6.830;2023-03-03T15:22:21;41.55;;;21.60;;
14732;SDS011;7457;50.960;6.830;2023-03-03T15:24:57;43.88;;;21.67;;
14732;SDS011;7457;50.960;6.830;2023-03-03T15:27:29;35.60;;;21.33;;
14732;SDS011;7457;50.960;6.830;2023-03-03T15:35:50;37.03;;;18.55;;
14732;SDS011;7457;50.960;6.830;2023-03-03T15:43:56;33.42;;;19.05;;
14732;SDS011;7457;50.960;6.830;2023-03-03T15:52:22;39.15;;;19.73;;
14732;SDS011;7457;50.960;6.830;2023-03-03T16:03:20;36.28;;;18.67;;
14732;SDS011;7457;50.960;6.830;2023-03-03T16:05:56;34.25;;;18.45;;
14732;SDS011;7457;50.960;6.830;2023-03-03T16:08:31;35.83;;;18.38;;
14732;SDS011;7457;50.960;6.830;2023-03-03T16:11:14;33.03;;;17.55;;
14732;SDS011;7457;50.960;6.830;2023-03-03T16:14:03;34.92;;;17.63;;
14732;SDS011;7457;50.960;6.830;2023-03-03T16:16:50;32.78;;;16.92;;
14732;SDS011;7457;50.960;6.830;2023-03-03T16:30:31;36.60;;;17.83;;
14732;SDS011;7457;50.960;6.830;2023-03-03T16:35:47;35.78;;;18.73;;
14732;SDS011;7457;50.960;6.830;2023-03-03T16:38:44;37.40;;;21.00;;
14732;SDS011;7457;50.960;6.830;2023-03-03T16:41:22;37.95;;;21.20;;
14732;SDS011;7457;50.960;6.830;2023-03-03T16:43:57;42.95;;;24.20;;
14732;SDS011;7457;50.960;6.830;2023-03-03T16:46:40;42.00;;;23.13;;
14732;SDS011;7457;50.960;6.830;2023-03-03T16:51:55;49.83;;;27.08;;
14732;SDS011;7457;50.960;6.830;2023-03-03T16:54:45;51.00;;;27.38;;
14732;SDS011;7457;50.960;6.830;2023-03-03T17:03:12;59.80;;;31.45;;
14732;SDS011;7457;50.960;6.830;2023-03-03T17:14:07;52.85;;;29.60;;
14732;SDS011;7457;50.960;6.830;2023-03-03T17:24:47;61.63;;;32.97;;
14732;SDS011;7457;50.960;6.830;2023-03-03T17:32:35;59.03;;;30.95;;
14732;SDS011;7457;50.960;6.830;2023-03-03T17:35:32;61.33;;;32.08;;
14732;SDS011;7457;50.960;6.830;2023-03-03T17:38:05;61.33;;;34.05;;
14732;SDS011;7457;50.960;6.830;2023-03-03T17:46:00;67.57;;;33.20;;
14732;SDS011;7457;50.960;6.830;2023-03-03T17:51:02;67.93;;;37.03;;
14732;SDS011;7457;50.960;6.830;2023-03-03T18:07:30;63.15;;;33.45;;
14732;SDS011;7457;50.960;6.830;2023-03-03T18:13:04;61.10;;;31.85;;
14732;SDS011;7457;50.960;6.830;2023-03-03T18:18:50;70.07;;;36.85;;
14732;SDS011;7457;50.960;6.830;2023-03-03T18:21:23;72.97;;;36.65;;
14732;SDS011;7457;50.960;6.830;2023-03-03T18:30:12;73.15;;;35.70;;
14732;SDS011;7457;50.960;6.830;2023-03-03T18:40:51;86.88;;;40.80;;
14732;SDS011;7457;50.960;6.830;2023-03-03T18:43:40;77.18;;;37.17;;
14732;SDS011;7457;50.960;6.830;2023-03-03T18:48:49;81.47;;;41.92;;
14732;SDS011;7457;50.960;6.830;2023-03-03T18:51:45;92.30;;;41.95;;
14732;SDS011;7457;50.960;6.830;2023-03-03T19:04:38;89.28;;;40.08;;
14732;SDS011;7457;50.960;6.830;2023-03-03T19:07:12;94.22;;;43.20;;
14732;SDS011;7457;50.960;6.830;2023-03-03T19:09:52;93.55;;;43.00;;
14732;SDS011;7457;50.960;6.830;2023-03-03T19:18:00;99.18;;;42.13;;
14732;SDS011;7457;50.960;6.830;2023-03-03T19:21:17;95.10;;;42.65;;
14732;SDS011;7457;50.960;6.830;2023-03-03T19:29:30;95.78;;;41.13;;
14732;SDS011;7457;50.960;6.830;2023-03-03T19:34:44;108.10;;;49.00;;
14732;SDS011;7457;50.960;6.830;2023-03-03T19:48:32;99.30;;;43.97;;
14732;SDS011;7457;50.960;6.830;2023-03-03T19:56:47;86.07;;;41.15;;
14732;SDS011;7457;50.960;6.830;2023-03-03T20:07:29;102.65;;;45.78;;
14732;SDS011;7457;50.960;6.830;2023-03-03T20:15:18;96.35;;;47.67;;
14732;SDS011;7457;50.960;6.830;2023-03-03T20:18:02;101.35;;;48.03;;
14732;SDS011;7457;50.960;6.830;2023-03-03T20:36:52;104.00;;;46.45;;
14732;SDS011;7457;50.960;6.830;2023-03-03T20:39:40;96.57;;;44.40;;
14732;SDS011;7457;50.960;6.830;2023-03-03T20:42:40;100.90;;;45.25;;
14732;SDS011;7457;50.960;6.830;2023-03-03T20:48:08;93.60;;;46.20;;
14732;SDS011;7457;50.960;6.830;2023-03-03T21:06:46;102.15;;;45.45;;
14732;SDS011;7457;50.960;6.830;2023-03-03T21:11:53;94.22;;;44.80;;
14732;SDS011;7457;50.960;6.830;2023-03-03T21:14:30;89.93;;;42.65;;
14732;SDS011;7457;50.960;6.830;2023-03-03T21:16:58;93.72;;;43.30;;
14732;SDS011;7457;50.960;6.830;2023-03-03T21:19:30;99.55;;;47.10;;
14732;SDS011;7457;50.960;6.830;2023-03-03T21:21:57;83.18;;;42.10;;
14732;SDS011;7457;50.960;6.830;2023-03-03T21:27:31;93.45;;;44.08;;
14732;SDS011;7457;50.960;6.830;2023-03-03T21:32:35;96.40;;;45.13;;
14732;SDS011;7457;50.960;6.830;2023-03-03T21:35:06;88.63;;;43.50;;
14732;SDS011;7457;50.960;6.830;2023-03-03T21:37:49;86.70;;;41.97;;
14732;SDS011;7457;50.960;6.830;2023-03-03T21:42:49;87.75;;;41.55;;
14732;SDS011;7457;50.960;6.830;2023-03-03T21:45:16;85.57;;;42.72;;
14732;SDS011;7457;50.960;6.830;2023-03-03T21:47:44;83.82;;;39.67;;
14732;SDS011;7457;50.960;6.830;2023-03-03T21:50:10;88.60;;;41.35;;
14732;SDS011;7457;50.960;6.830;2023-03-03T21:52:36;88.80;;;40.63;;
14732;SDS011;7457;50.960;6.830;2023-03-03T21:55:02;93.93;;;43.88;;
14732;SDS011;7457;50.960;6.830;2023-03-03T21:57:28;86.57;;;43.47;;
14732;SDS011;7457;50.960;6.830;2023-03-03T21:59:54;90.18;;;41.53;;
14732;SDS011;7457;50.960;6.830;2023-03-03T22:02:20;88.57;;;43.47;;
14732;SDS011;7457;50.960;6.830;2023-03-03T22:04:45;92.43;;;43.20;;
14732;SDS011;7457;50.960;6.830;2023-03-03T22:07:11;78.82;;;40.83;;
14732;SDS011;7457;50.960;6.830;2023-03-03T22:09:37;91.35;;;42.63;;
14732;SDS011;7457;50.960;6.830;2023-03-03T22:12:03;92.00;;;43.65;;
14732;SDS011;7457;50.960;6.830;2023-03-03T22:14:29;91.18;;;41.38;;
14732;SDS011;7457;50.960;6.830;2023-03-03T22:16:55;84.55;;;41.78;;
14732;SDS011;7457;50.960;6.830;2023-03-03T22:19:20;92.43;;;42.13;;
14732;SDS011;7457;50.960;6.830;2023-03-03T22:21:46;81.90;;;39.92;;
14732;SDS011;7457;50.960;6.830;2023-03-03T22:24:12;89.82;;;43.08;;
14732;SDS011;7457;50.960;6.830;2023-03-03T22:26:37;84.13;;;40.83;;
14732;SDS011;7457;50.960;6.830;2023-03-03T22:29:03;91.28;;;43.17;;
14732;SDS011;7457;50.960;6.830;2023-03-03T22:31:30;84.38;;;43.30;;
14732;SDS011;7457;50.960;6.830;2023-03-03T22:33:55;83.75;;;42.45;;
14732;SDS011;7457;50.960;6.830;2023-03-03T22:36:21;81.55;;;41.17;;
14732;SDS011;7457;50.960;6.830;2023-03-03T22:38:47;83.32;;;39.22;;
14732;SDS011;7457;50.960;6.830;2023-03-03T22:41:13;81.15;;;38.95;;
14732;SDS011;7457;50.960;6.830;2023-03-03T22:43:39;77.07;;;39.72;;
14732;SDS011;7457;50.960;6.830;2023-03-03T22:46:05;80.90;;;39.92;;
14732;SDS011;7457;50.960;6.830;2023-03-03T22:48:32;85.90;;;39.92;;
14732;SDS011;7457;50.960;6.830;2023-03-03T22:50:57;90.95;;;39.15;;
14732;SDS011;7457;50.960;6.830;2023-03-03T22:53:23;91.28;;;41.50;;
14732;SDS011;7457;50.960;6.830;2023-03-03T22:55:49;86.97;;;42.00;;
14732;SDS011;7457;50.960;6.830;2023-03-03T22:58:16;83.55;;;41.92;;
14732;SDS011;7457;50.960;6.830;2023-03-03T23:00:46;85.00;;;42.83;;
14732;SDS011;7457;50.960;6.830;2023-03-03T23:03:13;90.07;;;40.67;;
14732;SDS011;7457;50.960;6.830;2023-03-03T23:05:39;83.32;;;41.70;;
14732;SDS011;7457;50.960;6.830;2023-03-03T23:08:06;88.00;;;43.42;;
14732;SDS011;7457;50.960;6.830;2023-03-03T23:10:34;87.20;;;41.58;;
14732;SDS011;7457;50.960;6.830;2023-03-03T23:12:59;92.68;;;43.80;;
14732;SDS011;7457;50.960;6.830;2023-03-03T23:15:25;88.65;;;42.42;;
14732;SDS011;7457;50.960;6.830;2023-03-03T23:17:51;86.75;;;40.67;;
14732;SDS011;7457;50.960;6.830;2023-03-03T23:20:18;84.90;;;39.55;;
14732;SDS011;7457;50.960;6.830;2023-03-03T23:22:48;81.97;;;37.72;;
14732;SDS011;7457;50.960;6.830;2023-03-03T23:25:14;71.97;;;37.58;;
14732;SDS011;7457;50.960;6.830;2023-03-03T23:27:40;79.03;;;36.30;;
14732;SDS011;7457;50.960;6.830;2023-03-03T23:30:08;72.43;;;34.40;;
14732;SDS011;7457;50.960;6.830;2023-03-03T23:32:35;75.72;;;36.25;;
14732;SDS011;7457;50.960;6.830;2023-03-03T23:35:00;70.00;;;34.92;;
14732;SDS011;7457;50.960;6.830;2023-03-03T23:37:26;58.50;;;30.70;;
14732;SDS011;7457;50.960;6.830;2023-03-03T23:39:52;59.58;;;31.10;;
14732;SDS011;7457;50.960;6.830;2023-03-03T23:42:17;64.45;;;29.80;;
14732;SDS011;7457;50.960;6.830;2023-03-03T23:44:43;57.70;;;30.15;;
14732;SDS011;7457;50.960;6.830;2023-03-03T23:47:09;58.05;;;30.83;;
14732;SDS011;7457;50.960;6.830;2023-03-03T23:49:36;54.88;;;27.90;;
14732;SDS011;7457;50.960;6.830;2023-03-03T23:52:02;57.85;;;27.42;;